Aérodrome :
LOGIN :

S'inscrire | Disclaimer

   EN    FR    IT 

 










Légende :    VFR   VFR Marginal   IFR   IFR Intensif   IFR Très Intensif
Visi : 
Plafond : 
>= 8 km
>= 3000ft
5 à 8 km
1000 à 3000 ft
1500m à 5 km
500 à 1000 ft
800 à 1500m
200 à 500 ft
< 800m
< 200 ft
Symboles :   Orages  Brouillard  Fortes neiges  Fortes précipitations  Vent > 20 kt
SIGMETs :   Divers  Orages  Givrage  Turbulence  Onde Orograph.  Cendres Volcan.






- Altitude de l'aérodrome : 2776 ft
- Code IATA : VLL


LEVD - Valladolid

DERNIER METAR :
  • 190500Z AUTO 12002KT 9999 NCD M01/M02 Q1017

METARs EXPIRÉS :
  • 190430Z AUTO 12003KT 9999 NCD M00/M01 Q1017
  • 190400Z AUTO VRB02KT 9999 NCD M00/M01 Q1017
  • 190330Z AUTO 12004KT 9999 NCD 00/M01 Q1017
  • 190300Z AUTO 13004KT 9999 NCD 00/M01 Q1017
  • 190230Z AUTO 14004KT 9999 NCD 00/M01 Q1017

TAF TAF LEVD
Valide du 19 à 00h jusqu'au 20 à 00h UTC


182300Z 1900/1924 VRB05KT 9999 SCT030 TX08/1915Z TNM03/1906Z
PROB40
TEMPO 1900/1910 2000 BR BKN004
PROB30
TEMPO 1901/1909 0200 FG VV001
BECMG 1910/1911 22008KT



MET'MAP, la Météo Aéronautique d'un coup d'oeil ! - Copyright ORBIFLY Décembre 2007 - Disclaimer

ORBIFLY MET'MAP TEAM :

Programmation & Développement : Alexandra Zaïnal
Conception & Développement : Baudouin d'Aumeries
Co-Programmation & Développement : Marc-Olivier Méhu
Soutien technique & logistique : Manuel Goepfert

Contact : metmap@orbifly.com




SOURCES & CREDITS :

   NOAA